createdAt,value
2019-02-06T00:01:08.833Z,34.70
2019-02-06T00:02:12.599Z,34.53
2019-02-06T00:03:17.940Z,35.68
2019-02-06T00:04:21.637Z,33.88
2019-02-06T00:05:25.362Z,33.75
2019-02-06T00:06:29.137Z,31.82
2019-02-06T00:07:32.875Z,32.30
2019-02-06T00:08:36.965Z,33.50
2019-02-06T00:09:40.756Z,34.20
2019-02-06T00:10:44.512Z,31.75
2019-02-06T00:11:48.157Z,40.73
2019-02-06T00:12:51.739Z,33.98
2019-02-06T00:13:55.445Z,34.35
2019-02-06T00:14:59.070Z,35.52
2019-02-06T00:16:02.793Z,34.83
2019-02-06T00:17:06.480Z,35.35
2019-02-06T00:18:10.258Z,36.30
2019-02-06T00:19:13.965Z,37.45
2019-02-06T00:20:17.736Z,35.73
2019-02-06T00:21:21.790Z,37.95
2019-02-06T00:22:25.527Z,38.60
2019-02-06T00:23:29.231Z,42.78
2019-02-06T00:24:32.866Z,38.40
2019-02-06T00:25:36.543Z,35.13
2019-02-06T00:26:40.137Z,43.42
2019-02-06T00:27:43.803Z,36.08
2019-02-06T00:28:47.549Z,38.48
2019-02-06T00:29:51.148Z,40.25
2019-02-06T00:30:54.850Z,34.70
2019-02-06T00:31:58.536Z,39.75
2019-02-06T00:33:02.329Z,38.83
2019-02-06T00:34:06.002Z,38.83
2019-02-06T00:35:09.998Z,36.23
2019-02-06T00:36:13.787Z,32.85
2019-02-06T00:37:17.407Z,39.40
2019-02-06T00:38:21.179Z,37.20
2019-02-06T00:39:24.982Z,40.83
2019-02-06T00:40:28.644Z,37.15
2019-02-06T00:41:32.314Z,37.15
2019-02-06T00:42:35.954Z,36.03
2019-02-06T00:43:39.685Z,34.65
2019-02-06T00:44:43.290Z,39.42
2019-02-06T00:45:46.954Z,36.68
2019-02-06T00:46:50.642Z,38.90
2019-02-06T00:47:54.329Z,32.15
2019-02-06T00:48:58.209Z,36.13
2019-02-06T00:50:02.206Z,42.08
2019-02-06T00:51:06.050Z,38.10
2019-02-06T00:52:09.727Z,36.75
2019-02-06T00:53:13.439Z,36.73
2019-02-06T00:54:17.138Z,36.15
2019-02-06T00:55:20.852Z,37.90
2019-02-06T00:56:24.434Z,36.10
2019-02-06T00:57:28.134Z,39.30
2019-02-06T00:58:31.877Z,37.15
2019-02-06T00:59:35.586Z,34.55
2019-02-06T01:00:39.374Z,35.78
2019-02-06T01:01:43.182Z,34.65
2019-02-06T01:02:47.313Z,32.75
2019-02-06T01:03:51.250Z,35.50
2019-02-06T01:04:54.828Z,35.83
2019-02-06T01:05:58.534Z,39.80
2019-02-06T01:07:02.252Z,31.35
2019-02-06T01:08:06.010Z,41.02
2019-02-06T01:09:10.545Z,37.42
2019-02-06T01:10:21.882Z,38.88
2019-02-06T01:11:25.653Z,41.23
2019-02-06T01:12:29.395Z,40.50
2019-02-06T01:13:33.013Z,32.73
2019-02-06T01:14:36.765Z,44.67
2019-02-06T01:15:40.594Z,47.75
2019-02-06T01:16:44.261Z,39.48
2019-02-06T01:17:48.053Z,37.73
2019-02-06T01:18:52.002Z,47.75
2019-02-06T01:19:55.621Z,35.78
2019-02-06T01:20:59.331Z,39.50
2019-02-06T01:22:03.057Z,41.10
2019-02-06T01:23:06.766Z,38.38
2019-02-06T01:24:10.432Z,39.35
2019-02-06T01:25:16.621Z,33.10
2019-02-06T01:26:20.394Z,39.42
2019-02-06T01:27:24.104Z,40.00
2019-02-06T01:28:27.772Z,37.48
2019-02-06T01:29:31.420Z,37.55
2019-02-06T01:30:39.248Z,39.15
2019-02-06T01:31:42.941Z,40.55
2019-02-06T01:32:46.657Z,36.23
2019-02-06T01:33:50.668Z,34.35
2019-02-06T01:34:54.408Z,38.02
2019-02-06T01:35:58.146Z,39.38
2019-02-06T01:37:01.894Z,37.90
2019-02-06T01:38:05.734Z,36.83
2019-02-06T01:39:11.071Z,37.98
2019-02-06T01:40:18.022Z,34.53
2019-02-06T01:41:21.684Z,43.48
2019-02-06T01:42:25.415Z,42.88
2019-02-06T01:43:29.088Z,37.50
2019-02-06T01:44:32.814Z,40.08
2019-02-06T01:45:36.466Z,41.45
2019-02-06T01:46:40.241Z,47.10
2019-02-06T01:47:44.244Z,42.85
2019-02-06T01:48:48.126Z,47.20
2019-02-06T01:49:51.736Z,43.68
2019-02-06T01:50:55.359Z,45.58
2019-02-06T01:51:59.150Z,47.43
2019-02-06T01:53:02.852Z,41.23
2019-02-06T01:54:06.603Z,43.20
2019-02-06T01:55:12.109Z,46.85
2019-02-06T01:56:15.815Z,51.37
2019-02-06T01:57:19.533Z,42.75
2019-02-06T01:58:23.240Z,47.55
2019-02-06T01:59:26.862Z,40.88
2019-02-06T02:00:30.695Z,47.75
2019-02-06T02:01:34.711Z,51.42
2019-02-06T02:02:38.903Z,45.83
2019-02-06T02:03:42.740Z,46.88
2019-02-06T02:04:46.466Z,50.08
2019-02-06T02:06:01.427Z,47.70
2019-02-06T02:06:55.670Z,47.10
2019-02-06T02:07:59.416Z,48.48
2019-02-06T02:09:04.750Z,47.23
2019-02-06T02:10:10.475Z,49.33
2019-02-06T02:11:14.119Z,43.00
2019-02-06T02:12:17.726Z,47.48
2019-02-06T02:13:21.525Z,43.30
2019-02-06T02:14:25.226Z,44.65
2019-02-06T02:15:28.915Z,48.90
2019-02-06T02:16:32.887Z,41.58
2019-02-06T02:17:36.999Z,42.40
2019-02-06T02:18:40.603Z,44.75
2019-02-06T02:19:44.246Z,44.23
2019-02-06T02:20:47.862Z,43.08
2019-02-06T02:21:51.490Z,46.05
2019-02-06T02:22:55.241Z,39.50
2019-02-06T02:23:58.923Z,43.08
2019-02-06T02:25:02.551Z,44.55
2019-02-06T02:26:06.163Z,40.58
2019-02-06T02:27:09.863Z,49.93
2019-02-06T02:28:14.499Z,45.15
2019-02-06T02:29:18.114Z,41.77
2019-02-06T02:30:27.937Z,41.42
2019-02-06T02:31:31.631Z,36.75
2019-02-06T02:32:35.656Z,50.28
2019-02-06T02:33:39.559Z,45.40
2019-02-06T02:34:43.250Z,45.92
2019-02-06T02:35:46.948Z,50.12
2019-02-06T02:36:50.587Z,44.00
2019-02-06T02:37:54.328Z,48.58
2019-02-06T02:38:57.944Z,48.00
2019-02-06T02:40:01.729Z,46.37
2019-02-06T02:41:05.468Z,42.35
2019-02-06T02:42:09.226Z,42.53
2019-02-06T02:43:12.975Z,55.20
2019-02-06T02:44:16.548Z,47.90
2019-02-06T02:45:20.837Z,44.77
2019-02-06T02:46:24.438Z,44.67
2019-02-06T02:47:28.364Z,43.30
2019-02-06T02:48:32.074Z,39.80
2019-02-06T02:49:35.997Z,42.85
2019-02-06T02:50:39.681Z,42.50
2019-02-06T02:51:44.439Z,42.83
2019-02-06T02:52:48.166Z,43.63
2019-02-06T02:53:51.885Z,45.20
2019-02-06T02:54:55.559Z,44.13
2019-02-06T02:55:59.255Z,43.25
2019-02-06T02:57:02.931Z,46.20
2019-02-06T02:58:06.707Z,40.60
2019-02-06T02:59:10.313Z,50.25
2019-02-06T03:00:22.155Z,45.73
2019-02-06T03:01:30.256Z,42.45
2019-02-06T03:02:41.044Z,43.17
2019-02-06T03:03:49.080Z,41.02
2019-02-06T03:04:52.964Z,37.90
2019-02-06T03:05:56.924Z,39.40
2019-02-06T03:07:00.927Z,41.92
2019-02-06T03:08:04.915Z,41.90
2019-02-06T03:09:11.058Z,42.43
2019-02-06T03:10:14.909Z,41.25
2019-02-06T03:11:18.619Z,42.23
2019-02-06T03:12:22.199Z,45.30
2019-02-06T03:13:25.841Z,36.13
2019-02-06T03:14:29.535Z,43.90
2019-02-06T03:15:33.144Z,41.63
2019-02-06T03:16:36.721Z,37.93
2019-02-06T03:17:40.328Z,40.75
2019-02-06T03:18:43.960Z,42.00
2019-02-06T03:19:47.547Z,41.73
2019-02-06T03:20:51.438Z,44.13
2019-02-06T03:21:55.098Z,44.48
2019-02-06T03:22:58.752Z,46.83
2019-02-06T03:24:02.396Z,44.27
2019-02-06T03:25:09.012Z,44.55
2019-02-06T03:26:12.659Z,46.13
2019-02-06T03:27:16.281Z,46.50
2019-02-06T03:28:19.940Z,44.30
2019-02-06T03:29:23.547Z,38.85
2019-02-06T03:30:27.221Z,41.02
2019-02-06T03:31:30.908Z,46.85
2019-02-06T03:32:34.529Z,43.33
2019-02-06T03:33:38.542Z,41.55
2019-02-06T03:34:42.521Z,41.05
2019-02-06T03:35:46.523Z,46.63
2019-02-06T03:36:50.202Z,48.35
2019-02-06T03:37:53.820Z,43.02
2019-02-06T03:38:57.522Z,43.95
2019-02-06T03:40:01.170Z,47.88
2019-02-06T03:41:05.385Z,41.45
2019-02-06T03:42:09.003Z,48.95
2019-02-06T03:43:12.699Z,43.38
2019-02-06T03:44:16.312Z,45.95
2019-02-06T03:45:19.953Z,48.70
2019-02-06T03:46:23.565Z,45.48
2019-02-06T03:47:27.165Z,51.58
2019-02-06T03:48:31.042Z,52.27
2019-02-06T03:49:34.694Z,45.67
2019-02-06T03:50:38.408Z,43.50
2019-02-06T03:51:42.011Z,45.88
2019-02-06T03:52:45.676Z,53.83
2019-02-06T03:53:49.275Z,42.88
2019-02-06T03:54:52.848Z,48.80
2019-02-06T03:55:56.477Z,47.88
2019-02-06T03:57:00.067Z,47.73
2019-02-06T03:58:03.740Z,46.10
2019-02-06T03:59:07.404Z,47.45
2019-02-06T04:00:19.353Z,47.38
2019-02-06T04:01:23.001Z,49.70
2019-02-06T04:02:26.629Z,47.48
2019-02-06T04:03:30.387Z,48.87
2019-02-06T04:04:34.465Z,61.55
2019-02-06T04:05:38.174Z,44.63
2019-02-06T04:06:53.392Z,47.60
2019-02-06T04:07:47.163Z,52.93
2019-02-06T04:08:50.840Z,50.15
2019-02-06T04:09:54.518Z,53.85
2019-02-06T04:10:58.149Z,51.08
2019-02-06T04:12:01.750Z,51.30
2019-02-06T04:13:05.533Z,53.15
2019-02-06T04:14:09.394Z,50.25
2019-02-06T04:15:13.554Z,51.13
2019-02-06T04:16:17.146Z,59.35
2019-02-06T04:17:20.948Z,53.28
2019-02-06T04:18:24.833Z,54.85
2019-02-06T04:19:28.507Z,47.30
2019-02-06T04:20:32.141Z,45.33
2019-02-06T04:21:35.731Z,49.65
2019-02-06T04:22:39.445Z,49.90
2019-02-06T04:23:43.039Z,50.33
2019-02-06T04:24:46.714Z,50.90
2019-02-06T04:25:50.392Z,41.33
2019-02-06T04:26:54.153Z,53.33
2019-02-06T04:27:57.808Z,48.95
2019-02-06T04:29:01.426Z,57.13
2019-02-06T04:30:11.168Z,52.88
2019-02-06T04:31:14.764Z,47.23
2019-02-06T04:32:18.432Z,59.13
2019-02-06T04:33:22.390Z,49.73
2019-02-06T04:34:26.121Z,57.83
2019-02-06T04:35:29.730Z,53.40
2019-02-06T04:36:33.498Z,56.18
2019-02-06T04:37:37.112Z,53.50
2019-02-06T04:38:40.768Z,50.35
2019-02-06T04:39:44.577Z,50.70
2019-02-06T04:40:48.209Z,50.38
2019-02-06T04:41:51.823Z,54.63
2019-02-06T04:42:55.499Z,54.50
2019-02-06T04:43:59.149Z,50.73
2019-02-06T04:45:02.927Z,46.77
2019-02-06T04:46:06.615Z,52.50
2019-02-06T04:47:10.582Z,53.55
2019-02-06T04:48:14.266Z,59.90
2019-02-06T04:49:17.884Z,50.00
2019-02-06T04:50:21.472Z,50.35
2019-02-06T04:51:25.105Z,45.55
2019-02-06T04:52:28.699Z,54.00
2019-02-06T04:53:32.316Z,44.58
2019-02-06T04:54:35.932Z,46.65
2019-02-06T04:55:39.542Z,43.55
2019-02-06T04:56:43.164Z,44.30
2019-02-06T04:57:46.825Z,46.90
2019-02-06T04:58:50.438Z,50.35
2019-02-06T04:59:54.048Z,49.03
2019-02-06T05:00:58.057Z,49.18
2019-02-06T05:02:01.677Z,50.88
2019-02-06T05:03:05.357Z,49.75
2019-02-06T05:04:09.041Z,51.35
2019-02-06T05:05:12.810Z,47.60
2019-02-06T05:06:16.397Z,46.50
2019-02-06T05:07:20.009Z,48.25
2019-02-06T05:08:23.699Z,44.15
2019-02-06T05:09:27.334Z,45.08
2019-02-06T05:10:30.950Z,45.03
2019-02-06T05:11:34.587Z,45.58
2019-02-06T05:12:38.221Z,46.08
2019-02-06T05:13:42.053Z,49.03
2019-02-06T05:14:46.172Z,47.08
2019-02-06T05:15:49.830Z,46.42
2019-02-06T05:16:53.538Z,48.55
2019-02-06T05:17:57.265Z,51.53
2019-02-06T05:19:00.914Z,54.18
2019-02-06T05:20:07.595Z,50.38
2019-02-06T05:21:11.345Z,52.38
2019-02-06T05:22:14.975Z,50.30
2019-02-06T05:23:18.568Z,49.48
2019-02-06T05:24:22.172Z,48.98
2019-02-06T05:25:25.804Z,48.33
2019-02-06T05:26:29.407Z,48.52
2019-02-06T05:27:33.044Z,46.73
2019-02-06T05:28:37.051Z,47.38
2019-02-06T05:29:40.682Z,44.70
2019-02-06T05:30:44.343Z,46.53
2019-02-06T05:31:47.971Z,53.00
2019-02-06T05:32:51.661Z,48.68
2019-02-06T05:33:55.310Z,40.33
2019-02-06T05:34:58.987Z,48.10
2019-02-06T05:36:02.640Z,46.70
2019-02-06T05:37:06.246Z,43.48
2019-02-06T05:38:09.857Z,42.10
2019-02-06T05:39:13.446Z,44.58
2019-02-06T05:40:17.241Z,42.08
2019-02-06T05:41:21.127Z,45.65
2019-02-06T05:42:24.720Z,43.85
2019-02-06T05:43:28.620Z,49.03
2019-02-06T05:44:32.175Z,42.20
2019-02-06T05:45:35.830Z,52.83
2019-02-06T05:46:39.421Z,47.13
2019-02-06T05:47:43.086Z,43.60
2019-02-06T05:48:49.266Z,49.65
2019-02-06T05:49:51.944Z,42.80
2019-02-06T05:50:55.570Z,53.90
2019-02-06T05:51:59.226Z,52.20
2019-02-06T05:53:02.934Z,47.80
2019-02-06T05:54:06.549Z,49.27
2019-02-06T05:55:10.597Z,47.80
2019-02-06T05:56:14.173Z,43.30
2019-02-06T05:57:17.858Z,47.93
2019-02-06T05:58:21.486Z,45.28
2019-02-06T05:59:25.087Z,44.77
2019-02-06T06:00:30.753Z,43.65
2019-02-06T06:01:34.405Z,51.53
2019-02-06T06:02:38.041Z,43.92
2019-02-06T06:03:41.681Z,46.08
2019-02-06T06:04:45.356Z,50.90
2019-02-06T06:05:49.020Z,48.10
2019-02-06T06:06:52.699Z,43.73
2019-02-06T06:07:56.287Z,46.23
2019-02-06T06:09:00.302Z,43.58
2019-02-06T06:10:06.135Z,45.15
2019-02-06T06:11:09.746Z,48.63
2019-02-06T06:12:13.350Z,48.02
2019-02-06T06:13:18.632Z,45.10
2019-02-06T06:14:22.370Z,48.50
2019-02-06T06:15:26.014Z,44.95
2019-02-06T06:16:29.643Z,48.15
2019-02-06T06:17:33.292Z,47.17
2019-02-06T06:18:36.890Z,45.83
2019-02-06T06:19:40.475Z,44.63
2019-02-06T06:20:44.131Z,46.30
2019-02-06T06:21:48.086Z,40.70
2019-02-06T06:22:52.124Z,45.55
2019-02-06T06:23:55.687Z,40.90
2019-02-06T06:24:59.347Z,45.73
2019-02-06T06:26:03.088Z,39.03
2019-02-06T06:27:06.692Z,44.90
2019-02-06T06:28:10.319Z,50.65
2019-02-06T06:29:13.944Z,45.43
2019-02-06T06:30:19.585Z,40.20
2019-02-06T06:31:23.201Z,46.30
2019-02-06T06:32:26.891Z,49.40
2019-02-06T06:33:30.597Z,47.48
2019-02-06T06:34:34.287Z,44.00
2019-02-06T06:35:38.261Z,43.20
2019-02-06T06:36:42.253Z,43.85
2019-02-06T06:37:57.568Z,48.78
2019-02-06T06:38:51.368Z,42.03
2019-02-06T06:39:55.005Z,39.65
2019-02-06T06:40:58.611Z,39.45
2019-02-06T06:42:02.276Z,40.03
2019-02-06T06:43:06.050Z,35.33
2019-02-06T06:44:09.772Z,43.38
2019-02-06T06:45:16.510Z,38.83
2019-02-06T06:46:20.112Z,37.03
2019-02-06T06:47:23.691Z,38.05
2019-02-06T06:48:27.278Z,36.77
2019-02-06T06:49:30.899Z,38.53
2019-02-06T06:50:34.758Z,33.08
2019-02-06T06:51:38.780Z,36.80
2019-02-06T06:52:45.333Z,40.30
2019-02-06T06:53:49.188Z,31.65
2019-02-06T06:54:52.774Z,33.00
2019-02-06T06:55:56.435Z,33.98
2019-02-06T06:57:00.184Z,32.95
2019-02-06T06:58:03.762Z,36.17
2019-02-06T06:59:07.352Z,29.90
2019-02-06T07:00:16.841Z,35.25
2019-02-06T07:01:20.481Z,35.90
2019-02-06T07:02:24.105Z,35.03
2019-02-06T07:03:27.766Z,33.58
2019-02-06T07:04:31.374Z,31.00
2019-02-06T07:05:34.987Z,40.58
2019-02-06T07:06:39.064Z,38.40
2019-02-06T07:07:42.784Z,46.02
2019-02-06T07:08:46.382Z,34.78
2019-02-06T07:09:49.995Z,33.05
2019-02-06T07:10:53.605Z,32.20
2019-02-06T07:11:57.238Z,36.77
2019-02-06T07:13:00.842Z,35.60
2019-02-06T07:14:04.746Z,36.30
2019-02-06T07:15:23.277Z,34.10
2019-02-06T07:16:26.974Z,35.08
2019-02-06T07:17:30.612Z,35.95
2019-02-06T07:18:34.192Z,36.75
2019-02-06T07:19:37.788Z,37.25
2019-02-06T07:20:41.380Z,47.20
2019-02-06T07:21:45.043Z,39.83
2019-02-06T07:22:48.975Z,39.20
2019-02-06T07:23:52.864Z,33.88
2019-02-06T07:24:56.500Z,37.83
2019-02-06T07:26:00.183Z,34.90
2019-02-06T07:27:04.028Z,33.83
2019-02-06T07:28:07.623Z,34.90
2019-02-06T07:29:11.225Z,35.80
2019-02-06T07:30:17.874Z,34.38
2019-02-06T07:31:21.474Z,29.63
2019-02-06T07:32:25.159Z,29.30
2019-02-06T07:33:28.764Z,32.20
2019-02-06T07:34:32.395Z,34.27
2019-02-06T07:35:36.042Z,38.13
2019-02-06T07:36:39.657Z,33.30
2019-02-06T07:37:43.569Z,31.57
2019-02-06T07:38:47.314Z,31.60
2019-02-06T07:39:51.032Z,29.15
2019-02-06T07:40:54.619Z,30.82
2019-02-06T07:41:58.207Z,31.87
2019-02-06T07:43:01.869Z,32.08
2019-02-06T07:44:05.616Z,35.38
2019-02-06T07:45:12.281Z,31.50
2019-02-06T07:46:15.995Z,27.35
2019-02-06T07:47:19.567Z,32.00
2019-02-06T07:48:23.336Z,34.33
2019-02-06T07:49:26.926Z,32.85
2019-02-06T07:50:34.688Z,33.45
2019-02-06T07:51:38.333Z,35.68
2019-02-06T07:52:42.132Z,27.85
2019-02-06T07:53:45.750Z,28.60
2019-02-06T07:54:49.361Z,35.00
2019-02-06T07:55:52.969Z,25.95
2019-02-06T07:56:56.606Z,28.67
2019-02-06T07:58:00.345Z,26.50
2019-02-06T07:59:04.066Z,31.90
2019-02-06T08:00:08.248Z,31.97
2019-02-06T08:01:11.853Z,29.45
2019-02-06T08:02:15.527Z,31.05
2019-02-06T08:03:19.172Z,29.00
2019-02-06T08:04:22.839Z,33.53
2019-02-06T08:05:26.607Z,31.73
2019-02-06T08:06:30.611Z,30.00
2019-02-06T08:07:34.241Z,30.20
2019-02-06T08:08:37.883Z,28.90
2019-02-06T08:09:41.474Z,30.23
2019-02-06T08:10:45.077Z,24.98
2019-02-06T08:11:48.743Z,32.05
2019-02-06T08:12:52.488Z,28.12
2019-02-06T08:13:56.195Z,28.30
2019-02-06T08:14:59.880Z,33.13
2019-02-06T08:16:03.645Z,30.23
2019-02-06T08:17:07.303Z,31.35
2019-02-06T08:18:10.953Z,30.23
2019-02-06T08:19:14.590Z,24.15
2019-02-06T08:20:21.312Z,27.62
2019-02-06T08:21:24.996Z,28.42
2019-02-06T08:22:28.589Z,29.35
2019-02-06T08:23:32.325Z,32.15
2019-02-06T08:24:35.959Z,30.48
2019-02-06T08:25:39.644Z,33.67
2019-02-06T08:26:43.264Z,27.62
2019-02-06T08:27:46.838Z,27.98
2019-02-06T08:28:50.445Z,30.60
2019-02-06T08:29:54.343Z,28.07
2019-02-06T08:30:58.095Z,24.92
2019-02-06T08:32:01.735Z,30.15
2019-02-06T08:33:05.469Z,34.15
2019-02-06T08:34:09.390Z,28.87
2019-02-06T08:35:13.539Z,22.50
2019-02-06T08:36:17.133Z,34.98
2019-02-06T08:37:20.831Z,31.85
2019-02-06T08:38:24.483Z,28.55
2019-02-06T08:39:28.150Z,26.80
2019-02-06T08:40:32.374Z,31.20
2019-02-06T08:41:36.136Z,30.55
2019-02-06T08:42:39.747Z,35.40
2019-02-06T08:43:43.388Z,25.35
2019-02-06T08:44:46.992Z,31.55
2019-02-06T08:45:50.572Z,28.60
2019-02-06T08:46:54.196Z,30.68
2019-02-06T08:47:57.955Z,28.95
2019-02-06T08:49:01.910Z,28.77
2019-02-06T08:50:08.917Z,31.12
2019-02-06T08:51:12.515Z,32.63
2019-02-06T08:52:16.173Z,30.85
2019-02-06T08:53:19.774Z,25.72
2019-02-06T08:54:23.431Z,27.80
2019-02-06T08:55:28.783Z,26.87
2019-02-06T08:56:32.435Z,31.07
2019-02-06T08:57:36.131Z,27.90
2019-02-06T08:58:39.726Z,42.35
2019-02-06T08:59:43.508Z,29.98
2019-02-06T09:00:47.259Z,30.97
2019-02-06T09:01:50.934Z,29.07
2019-02-06T09:02:55.301Z,30.70
2019-02-06T09:03:58.929Z,33.83
2019-02-06T09:05:02.599Z,29.23
2019-02-06T09:06:06.195Z,27.70
2019-02-06T09:07:09.855Z,29.30
2019-02-06T09:08:13.452Z,28.05
2019-02-06T09:09:17.370Z,33.30
2019-02-06T09:10:23.632Z,32.55
2019-02-06T09:11:27.219Z,27.82
2019-02-06T09:12:30.818Z,30.95
2019-02-06T09:13:34.581Z,29.52
2019-02-06T09:14:38.196Z,26.35
2019-02-06T09:15:41.850Z,28.73
2019-02-06T09:16:45.538Z,27.40
2019-02-06T09:17:49.391Z,28.12
2019-02-06T09:18:53.075Z,27.48
2019-02-06T09:19:56.662Z,26.68
2019-02-06T09:21:00.306Z,24.05
2019-02-06T09:22:03.963Z,27.75
2019-02-06T09:23:07.735Z,29.45
2019-02-06T09:24:11.394Z,28.80
2019-02-06T09:25:18.101Z,27.20
2019-02-06T09:26:21.727Z,24.82
2019-02-06T09:27:25.305Z,23.38
2019-02-06T09:28:28.975Z,23.52
2019-02-06T09:29:32.694Z,27.75
2019-02-06T09:30:36.534Z,27.40
2019-02-06T09:31:40.430Z,29.65
2019-02-06T09:32:44.003Z,27.45
2019-02-06T09:33:47.669Z,26.23
2019-02-06T09:34:51.329Z,27.98
2019-02-06T09:35:54.943Z,23.52
2019-02-06T09:36:58.593Z,24.67
2019-02-06T09:38:02.310Z,27.00
2019-02-06T09:39:11.605Z,25.40
2019-02-06T09:40:16.482Z,27.80
2019-02-06T09:41:20.221Z,26.37
2019-02-06T09:42:23.923Z,26.02
2019-02-06T09:43:27.633Z,27.93
2019-02-06T09:44:31.193Z,32.33
2019-02-06T09:45:34.893Z,25.62
2019-02-06T09:46:38.824Z,29.00
2019-02-06T09:47:42.424Z,25.12
2019-02-06T09:48:46.078Z,21.60
2019-02-06T09:49:50.023Z,29.67
2019-02-06T09:50:53.676Z,31.85
2019-02-06T09:51:57.422Z,28.23
2019-02-06T09:53:01.090Z,27.55
2019-02-06T09:54:04.800Z,27.77
2019-02-06T09:55:08.659Z,23.18
2019-02-06T09:56:12.272Z,24.57
2019-02-06T09:57:15.896Z,27.80
2019-02-06T09:58:19.537Z,24.82
2019-02-06T09:59:23.332Z,31.37
2019-02-06T10:00:30.354Z,26.57
2019-02-06T10:01:33.948Z,28.40
2019-02-06T10:02:37.638Z,28.60
2019-02-06T10:03:41.264Z,26.17
2019-02-06T10:04:44.940Z,22.17
2019-02-06T10:05:48.579Z,27.48
2019-02-06T10:06:54.382Z,28.95
2019-02-06T10:07:57.559Z,27.07
2019-02-06T10:09:01.132Z,28.00
2019-02-06T10:10:07.382Z,28.47
2019-02-06T10:11:10.962Z,29.55
2019-02-06T10:12:14.645Z,23.57
2019-02-06T10:13:18.233Z,33.73
2019-02-06T10:14:22.077Z,28.65
2019-02-06T10:15:28.298Z,26.85
2019-02-06T10:16:31.980Z,31.62
2019-02-06T10:17:36.270Z,28.05
2019-02-06T10:18:39.957Z,25.17
2019-02-06T10:19:43.681Z,31.55
2019-02-06T10:20:48.850Z,29.52
2019-02-06T10:21:53.664Z,27.10
2019-02-06T10:22:57.466Z,26.30
2019-02-06T10:24:01.047Z,25.43
2019-02-06T10:25:05.915Z,43.20
2019-02-06T10:26:09.571Z,40.20
2019-02-06T10:27:13.300Z,29.00
2019-02-06T10:28:17.020Z,32.60
2019-02-06T10:29:20.627Z,23.47
2019-02-06T10:30:33.344Z,27.40
2019-02-06T10:31:37.209Z,23.35
2019-02-06T10:32:41.248Z,27.67
2019-02-06T10:33:45.020Z,31.23
2019-02-06T10:34:48.618Z,23.18
2019-02-06T10:35:52.622Z,27.82
2019-02-06T10:36:56.315Z,27.32
2019-02-06T10:38:00.011Z,25.80
2019-02-06T10:39:05.243Z,28.38
2019-02-06T10:40:11.176Z,27.85
2019-02-06T10:41:14.761Z,28.25
2019-02-06T10:42:18.367Z,26.68
2019-02-06T10:43:31.749Z,26.60
2019-02-06T10:44:27.241Z,27.22
2019-02-06T10:45:30.925Z,27.52
2019-02-06T10:46:34.813Z,19.80
2019-02-06T10:47:38.799Z,28.90
2019-02-06T10:48:43.916Z,24.25
2019-02-06T10:49:47.551Z,23.67
2019-02-06T10:50:51.420Z,23.90
2019-02-06T10:51:55.208Z,29.63
2019-02-06T10:52:59.080Z,27.52
2019-02-06T10:54:02.816Z,24.98
2019-02-06T10:55:07.939Z,24.72
2019-02-06T10:56:11.637Z,38.13
2019-02-06T10:57:15.364Z,31.73
2019-02-06T10:58:19.138Z,26.57
2019-02-06T10:59:22.894Z,28.00
2019-02-06T11:00:31.588Z,35.13
2019-02-06T11:01:35.453Z,28.15
2019-02-06T11:02:39.316Z,26.37
2019-02-06T11:03:43.008Z,31.87
2019-02-06T11:04:46.615Z,32.65
2019-02-06T11:05:50.359Z,29.32
2019-02-06T11:06:54.051Z,27.10
2019-02-06T11:07:57.761Z,27.13
2019-02-06T11:09:01.385Z,27.00
2019-02-06T11:10:08.069Z,31.52
2019-02-06T11:11:11.800Z,54.80
2019-02-06T11:12:15.444Z,37.15
2019-02-06T11:13:19.112Z,35.88
2019-02-06T11:14:22.733Z,30.32
2019-02-06T11:15:27.418Z,25.55
2019-02-06T11:16:31.298Z,29.72
2019-02-06T11:17:35.263Z,30.37
2019-02-06T11:18:38.970Z,33.25
2019-02-06T11:19:43.271Z,27.62
2019-02-06T11:20:47.157Z,27.50
2019-02-06T11:21:50.773Z,31.52
2019-02-06T11:22:54.414Z,29.57
2019-02-06T11:23:58.073Z,29.65
2019-02-06T11:25:04.583Z,29.07
2019-02-06T11:26:07.110Z,25.23
2019-02-06T11:27:10.772Z,29.55
2019-02-06T11:28:14.501Z,25.95
2019-02-06T11:29:18.185Z,33.30
2019-02-06T11:30:27.416Z,30.43
2019-02-06T11:31:31.129Z,32.73
2019-02-06T11:32:35.019Z,27.75
2019-02-06T11:33:38.621Z,28.07
2019-02-06T11:34:42.209Z,35.75
2019-02-06T11:35:45.981Z,26.20
2019-02-06T11:36:49.585Z,34.90
2019-02-06T11:37:53.234Z,31.05
2019-02-06T11:38:56.931Z,25.68
2019-02-06T11:40:00.516Z,23.95
2019-02-06T11:41:04.213Z,27.95
2019-02-06T11:42:07.816Z,31.10
2019-02-06T11:43:11.468Z,28.40
2019-02-06T11:44:15.145Z,29.15
2019-02-06T11:45:27.853Z,28.77
2019-02-06T11:46:31.478Z,24.85
2019-02-06T11:47:35.194Z,30.35
2019-02-06T11:48:39.138Z,31.65
2019-02-06T11:49:42.914Z,27.67
2019-02-06T11:50:46.589Z,28.17
2019-02-06T11:51:50.186Z,24.92
2019-02-06T11:52:53.949Z,28.05
2019-02-06T11:53:57.713Z,28.38
2019-02-06T11:55:01.322Z,28.02
2019-02-06T11:56:05.056Z,27.20
2019-02-06T11:57:08.682Z,27.55
2019-02-06T11:58:12.434Z,29.30
2019-02-06T11:59:16.025Z,29.00
2019-02-06T12:00:23.593Z,32.23
2019-02-06T12:01:28.090Z,29.05
2019-02-06T12:02:37.301Z,26.52
2019-02-06T12:03:36.992Z,31.37
2019-02-06T12:04:40.666Z,26.60
2019-02-06T12:05:44.366Z,28.52
2019-02-06T12:06:48.066Z,27.93
2019-02-06T12:07:51.731Z,29.52
2019-02-06T12:08:55.417Z,27.45
2019-02-06T12:10:09.386Z,28.57
2019-02-06T12:11:06.229Z,26.23
2019-02-06T12:12:10.059Z,24.82
2019-02-06T12:13:13.809Z,29.23
2019-02-06T12:14:17.491Z,23.30
2019-02-06T12:15:21.415Z,25.77
2019-02-06T12:16:25.207Z,28.83
2019-02-06T12:17:29.124Z,26.07
2019-02-06T12:18:33.226Z,25.90
2019-02-06T12:19:36.836Z,23.20
2019-02-06T12:20:40.474Z,23.92
2019-02-06T12:21:44.058Z,27.62
2019-02-06T12:22:47.679Z,24.30
2019-02-06T12:23:51.291Z,24.65
2019-02-06T12:24:54.934Z,22.27
2019-02-06T12:25:58.677Z,24.90
2019-02-06T12:27:02.294Z,22.67
2019-02-06T12:28:06.131Z,27.55
2019-02-06T12:29:09.715Z,23.15
2019-02-06T12:30:16.460Z,25.80
2019-02-06T12:31:20.522Z,25.50
2019-02-06T12:32:24.472Z,24.07
2019-02-06T12:33:28.108Z,30.12
2019-02-06T12:34:31.764Z,25.60
2019-02-06T12:35:35.500Z,25.80
2019-02-06T12:36:39.092Z,29.90
2019-02-06T12:37:42.707Z,28.07
2019-02-06T12:38:53.442Z,27.85
2019-02-06T12:39:51.671Z,23.57
2019-02-06T12:40:55.434Z,22.87
2019-02-06T12:41:59.084Z,31.93
2019-02-06T12:43:03.136Z,24.80
2019-02-06T12:44:07.088Z,24.12
2019-02-06T12:45:16.705Z,20.55
2019-02-06T12:46:20.346Z,26.12
2019-02-06T12:47:26.810Z,20.75
2019-02-06T12:48:29.215Z,25.12
2019-02-06T12:49:32.866Z,22.58
2019-02-06T12:50:36.496Z,23.90
2019-02-06T12:51:40.113Z,22.58
2019-02-06T12:52:43.759Z,24.67
2019-02-06T12:53:47.452Z,20.43
2019-02-06T12:54:51.179Z,21.00
2019-02-06T12:55:54.776Z,23.73
2019-02-06T12:56:58.468Z,21.37
2019-02-06T12:58:02.353Z,24.60
2019-02-06T12:59:06.373Z,25.17
2019-02-06T13:00:13.096Z,22.20
2019-02-06T13:01:16.772Z,24.85
2019-02-06T13:02:20.463Z,27.25
2019-02-06T13:03:24.089Z,23.90
2019-02-06T13:04:27.701Z,26.25
2019-02-06T13:05:31.652Z,25.15
2019-02-06T13:06:36.131Z,22.82
2019-02-06T13:07:39.800Z,23.12
2019-02-06T13:08:43.438Z,25.57
2019-02-06T13:09:47.042Z,26.33
2019-02-06T13:10:50.697Z,23.98
2019-02-06T13:11:54.383Z,27.67
2019-02-06T13:12:58.354Z,27.55
2019-02-06T13:14:01.944Z,27.77
2019-02-06T13:15:08.606Z,25.23
2019-02-06T13:16:12.232Z,27.42
2019-02-06T13:17:15.878Z,36.25
2019-02-06T13:18:19.536Z,23.83
2019-02-06T13:19:23.131Z,25.60
2019-02-06T13:20:31.907Z,30.55
2019-02-06T13:21:35.547Z,22.48
2019-02-06T13:22:39.199Z,26.48
2019-02-06T13:23:42.770Z,21.25
2019-02-06T13:24:46.411Z,21.82
2019-02-06T13:25:50.006Z,22.52
2019-02-06T13:26:53.659Z,20.15
2019-02-06T13:27:57.666Z,27.85
2019-02-06T13:29:01.295Z,21.45
2019-02-06T13:30:10.779Z,24.12
2019-02-06T13:31:14.440Z,25.37
2019-02-06T13:32:18.119Z,24.80
2019-02-06T13:33:21.725Z,30.30
2019-02-06T13:34:25.431Z,23.20
2019-02-06T13:35:29.149Z,25.10
2019-02-06T13:36:32.715Z,23.85
2019-02-06T13:37:36.419Z,22.85
2019-02-06T13:38:40.090Z,23.38
2019-02-06T13:39:43.778Z,19.30
2019-02-06T13:40:47.562Z,23.77
2019-02-06T13:41:51.129Z,18.73
2019-02-06T13:42:54.987Z,18.23
2019-02-06T13:43:58.577Z,26.52
2019-02-06T13:45:02.173Z,17.87